Time;durP1;ratioP1;P1;durP2;ratioP2;P2;SDS_P1;SDS_P2;PMS_P1;PMS_P2;Temp;Humidity;BMP_temperature;BMP_pressure;BME280_temperature;BME280_humidity;BME280_pressure;Samples;Min_cycle;Max_cycle;Signal;HPM_P1;HPM_P2
2022/01/27 00:04:04;;;;;;;23.55;12.98;;;;;;;;;;4969667;28;20561;-79
2022/01/27 00:06:33;;;;;;;25.23;12.32;;;;;;;;;;4968826;28;20043;-79
2022/01/27 00:09:13;;;;;;;24.60;12.30;;;;;;;;;;4949080;28;20495;-80
2022/01/27 00:11:42;;;;;;;22.58;11.85;;;;;;;;;;4968960;28;20070;-80
2022/01/27 00:14:10;;;;;;;21.73;12.20;;;;;;;;;;4951991;28;20051;-78
2022/01/27 00:16:41;;;;;;;21.83;12.55;;;;;;;;;;4946642;28;20046;-79
2022/01/27 00:19:07;;;;;;;24.73;12.70;;;;;;;;;;4964882;28;20046;-79
2022/01/27 00:21:33;;;;;;;20.00;11.50;;;;;;;;;;4962650;28;20125;-79
2022/01/27 00:23:59;;;;;;;19.80;11.82;;;;;;;;;;4943472;28;20058;-79
2022/01/27 00:26:25;;;;;;;23.83;12.55;;;;;;;;;;4959796;28;20090;-79
2022/01/27 00:28:51;;;;;;;23.45;13.00;;;;;;;;;;4943539;28;20058;-80
2022/01/27 00:31:18;;;;;;;19.77;12.25;;;;;;;;;;4964092;28;20050;-80
2022/01/27 00:33:44;;;;;;;22.65;13.45;;;;;;;;;;4944540;28;20193;-79
2022/01/27 00:36:10;;;;;;;24.80;15.05;;;;;;;;;;4946816;28;20125;-80
2022/01/27 00:38:37;;;;;;;22.65;14.02;;;;;;;;;;4946334;28;20054;-79
2022/01/27 00:41:03;;;;;;;23.73;14.55;;;;;;;;;;4965057;28;20035;-79
2022/01/27 00:43:29;;;;;;;26.08;14.70;;;;;;;;;;4962889;28;20046;-79
2022/01/27 00:45:55;;;;;;;22.17;12.95;;;;;;;;;;4962411;28;20047;-78
2022/01/27 00:48:21;;;;;;;20.90;13.23;;;;;;;;;;4944665;28;20152;-79
2022/01/27 00:50:56;;;;;;;22.48;13.35;;;;;;;;;;4945102;28;20542;-80
2022/01/27 00:53:39;;;;;;;27.67;14.98;;;;;;;;;;4948321;28;20110;-79
2022/01/27 01:01:39;;;;;;;24.48;13.50;;;;;;;;;;4944327;28;20149;-79
2022/01/27 01:04:08;;;;;;;19.83;12.43;;;;;;;;;;4946064;28;20042;-79
2022/01/27 01:06:43;;;;;;;23.70;13.88;;;;;;;;;;4962351;28;20043;-80
2022/01/27 01:10:09;;;;;;;23.85;13.65;;;;;;;;;;4942831;28;20496;-79
2022/01/27 01:14:59;;;;;;;24.90;14.35;;;;;;;;;;4961678;28;20129;-78
2022/01/27 01:17:38;;;;;;;25.48;14.88;;;;;;;;;;4943006;28;20116;-79
2022/01/27 01:20:24;;;;;;;24.90;15.13;;;;;;;;;;4961178;28;20479;-79
2022/01/27 01:33:57;;;;;;;24.23;13.30;;;;;;;;;;4960581;28;20059;-80
2022/01/27 01:36:35;;;;;;;24.92;14.00;;;;;;;;;;4965808;28;20043;-79
2022/01/27 01:39:01;;;;;;;26.05;14.10;;;;;;;;;;4965828;28;20051;-79
2022/01/27 01:41:27;;;;;;;19.92;13.82;;;;;;;;;;4969324;28;20055;-80
2022/01/27 01:43:53;;;;;;;22.17;14.20;;;;;;;;;;4969673;28;20047;-79
2022/01/27 01:46:19;;;;;;;25.13;13.35;;;;;;;;;;4941133;28;20495;-79
2022/01/27 01:48:45;;;;;;;21.63;13.73;;;;;;;;;;4962494;28;20038;-79
2022/01/27 01:51:11;;;;;;;25.88;14.18;;;;;;;;;;4961177;28;20591;-78
2022/01/27 01:53:37;;;;;;;25.38;14.40;;;;;;;;;;4963746;28;20046;-79
2022/01/27 01:56:05;;;;;;;20.25;13.38;;;;;;;;;;4969092;28;20066;-79
2022/01/27 01:58:31;;;;;;;21.10;13.15;;;;;;;;;;4969277;28;20046;-80
2022/01/27 02:00:57;;;;;;;23.77;13.50;;;;;;;;;;4971015;28;20046;-79
2022/01/27 02:03:23;;;;;;;22.38;13.07;;;;;;;;;;4966101;28;20474;-79
2022/01/27 02:05:54;;;;;;;22.23;11.50;;;;;;;;;;4962142;28;20050;-78
2022/01/27 02:19:20;;;;;;;23.67;13.38;;;;;;;;;;4948093;28;20146;-80
2022/01/27 02:21:45;;;;;;;23.45;14.15;;;;;;;;;;4964006;28;21654;-79
2022/01/27 02:24:12;;;;;;;24.17;13.57;;;;;;;;;;4965515;28;20043;-80
2022/01/27 02:26:38;;;;;;;23.30;13.98;;;;;;;;;;4947376;28;20050;-79
2022/01/27 02:29:03;;;;;;;24.85;13.05;;;;;;;;;;4946112;28;20066;-81
2022/01/27 02:31:29;;;;;;;21.02;12.25;;;;;;;;;;4947862;28;20043;-80
2022/01/27 02:33:57;;;;;;;20.90;12.10;;;;;;;;;;4947330;28;20046;-79
2022/01/27 02:36:23;;;;;;;21.88;13.38;;;;;;;;;;4968386;28;20055;-79
2022/01/27 02:38:49;;;;;;;26.52;13.43;;;;;;;;;;4947112;28;20057;-79
2022/01/27 02:41:16;;;;;;;25.05;12.68;;;;;;;;;;4967252;28;20051;-79
2022/01/27 02:43:42;;;;;;;25.15;12.98;;;;;;;;;;4963950;28;20447;-79
2022/01/27 02:46:17;;;;;;;24.40;12.63;;;;;;;;;;4965415;28;20065;-79
2022/01/27 02:48:43;;;;;;;19.02;11.00;;;;;;;;;;4965593;28;20043;-79
2022/01/27 02:51:12;;;;;;;21.05;11.68;;;;;;;;;;4946370;28;20150;-80
2022/01/27 02:53:38;;;;;;;22.20;11.90;;;;;;;;;;4964715;28;20043;-79
2022/01/27 02:56:05;;;;;;;21.25;12.02;;;;;;;;;;4965873;28;20066;-80
2022/01/27 02:58:31;;;;;;;21.38;10.98;;;;;;;;;;4946148;28;20070;-80
2022/01/27 03:00:57;;;;;;;20.42;11.20;;;;;;;;;;4947404;28;20047;-80
2022/01/27 03:03:23;;;;;;;20.77;10.75;;;;;;;;;;4962585;28;20058;-79
2022/01/27 03:05:48;;;;;;;23.45;10.85;;;;;;;;;;4946333;28;20054;-80
2022/01/27 03:08:17;;;;;;;22.92;11.15;;;;;;;;;;4964781;28;20572;-80
2022/01/27 03:10:45;;;;;;;20.55;10.45;;;;;;;;;;4963548;28;20129;-80
2022/01/27 03:13:11;;;;;;;20.80;9.32;;;;;;;;;;4965404;28;20380;-79
2022/01/27 03:15:37;;;;;;;18.05;10.52;;;;;;;;;;4963410;28;20039;-80
2022/01/27 03:18:03;;;;;;;21.52;10.38;;;;;;;;;;4945366;28;20141;-79
2022/01/27 03:20:33;;;;;;;25.60;11.20;;;;;;;;;;4964646;28;20038;-80
2022/01/27 03:23:03;;;;;;;18.30;10.23;;;;;;;;;;4963332;28;20097;-79
2022/01/27 03:25:29;;;;;;;19.65;9.50;;;;;;;;;;4963344;28;20047;-78
2022/01/27 03:27:55;;;;;;;21.35;10.13;;;;;;;;;;4948105;28;20082;-80
2022/01/27 03:30:21;;;;;;;18.33;9.23;;;;;;;;;;4964267;28;20577;-80
2022/01/27 03:32:47;;;;;;;20.70;9.70;;;;;;;;;;4947628;28;20445;-80
2022/01/27 03:35:14;;;;;;;19.90;10.80;;;;;;;;;;4946224;28;20047;-80
2022/01/27 03:37:51;;;;;;;21.83;10.70;;;;;;;;;;4946975;28;20074;-80
2022/01/27 03:40:18;;;;;;;18.58;8.82;;;;;;;;;;4946376;28;20050;-80
2022/01/27 03:42:50;;;;;;;21.15;9.85;;;;;;;;;;4966332;28;20553;-80
2022/01/27 03:45:19;;;;;;;17.67;9.67;;;;;;;;;;4945681;28;20135;-80
2022/01/27 03:47:45;;;;;;;22.50;10.95;;;;;;;;;;4946045;28;20359;-80
2022/01/27 03:50:11;;;;;;;20.30;10.82;;;;;;;;;;4946614;28;20197;-80
2022/01/27 03:52:37;;;;;;;22.20;10.10;;;;;;;;;;4963899;28;20035;-80
2022/01/27 03:55:04;;;;;;;19.85;9.45;;;;;;;;;;4969156;28;20069;-80
2022/01/27 03:57:30;;;;;;;17.65;9.25;;;;;;;;;;4972624;28;20403;-80
2022/01/27 03:59:56;;;;;;;17.38;10.82;;;;;;;;;;4971455;28;20051;-79
2022/01/27 04:02:22;;;;;;;23.73;11.15;;;;;;;;;;4973073;28;20042;-80
2022/01/27 04:04:48;;;;;;;20.00;10.05;;;;;;;;;;4965114;28;20178;-79
2022/01/27 04:07:14;;;;;;;20.90;10.73;;;;;;;;;;4963444;28;20054;-80
2022/01/27 04:09:40;;;;;;;23.23;11.13;;;;;;;;;;4963810;28;20065;-80
2022/01/27 04:12:06;;;;;;;23.02;10.73;;;;;;;;;;4965305;28;20057;-80
2022/01/27 04:14:32;;;;;;;22.27;11.23;;;;;;;;;;4946541;28;20053;-80
2022/01/27 04:16:58;;;;;;;20.50;10.00;;;;;;;;;;4962364;28;20051;-79
2022/01/27 04:19:24;;;;;;;21.38;11.13;;;;;;;;;;4946267;28;20406;-80
2022/01/27 04:21:50;;;;;;;25.20;10.82;;;;;;;;;;4966115;28;20050;-79
2022/01/27 04:24:17;;;;;;;18.58;9.38;;;;;;;;;;4946026;28;20066;-80
2022/01/27 04:26:48;;;;;;;23.80;9.57;;;;;;;;;;4945416;28;20078;-80
2022/01/27 04:29:16;;;;;;;18.90;9.30;;;;;;;;;;4947388;28;20767;-79
2022/01/27 04:31:44;;;;;;;19.38;9.63;;;;;;;;;;4961808;28;20113;-80
2022/01/27 04:34:12;;;;;;;20.52;9.48;;;;;;;;;;4945234;28;21421;-81
2022/01/27 04:36:39;;;;;;;20.38;10.13;;;;;;;;;;4944780;28;20074;-79
2022/01/27 04:44:17;;;;;;;17.98;8.52;;;;;;;;;;4965141;28;20055;-80
2022/01/27 04:46:54;;;;;;;25.15;11.68;;;;;;;;;;4962993;28;20057;-79
2022/01/27 04:49:20;;;;;;;22.80;11.07;;;;;;;;;;4962489;28;20495;-79
2022/01/27 04:51:47;;;;;;;24.73;10.93;;;;;;;;;;4945625;28;21698;-80
2022/01/27 04:54:22;;;;;;;21.60;10.40;;;;;;;;;;4945309;28;20058;-80
2022/01/27 04:56:52;;;;;;;25.42;10.70;;;;;;;;;;4959587;28;21802;-81
2022/01/27 04:59:23;;;;;;;21.48;10.35;;;;;;;;;;4950422;28;20073;-80
2022/01/27 05:01:58;;;;;;;20.88;10.07;;;;;;;;;;4943840;28;20054;-80
2022/01/27 05:04:29;;;;;;;26.55;11.45;;;;;;;;;;4962471;28;20050;-80
2022/01/27 05:06:55;;;;;;;22.75;11.35;;;;;;;;;;4962842;28;20092;-79
2022/01/27 05:09:34;;;;;;;26.20;10.95;;;;;;;;;;4963351;28;20455;-79
2022/01/27 05:12:31;;;;;;;21.83;10.40;;;;;;;;;;4961005;28;20082;-79
2022/01/27 05:14:46;;;;;;;22.20;11.20;;;;;;;;;;4965738;28;20078;-79
2022/01/27 05:17:17;;;;;;;24.55;10.90;;;;;;;;;;4953230;28;20050;-79
2022/01/27 05:19:43;;;;;;;20.45;10.15;;;;;;;;;;4969418;28;20042;-80
2022/01/27 05:22:09;;;;;;;21.95;11.52;;;;;;;;;;4971381;28;20117;-80
2022/01/27 05:24:35;;;;;;;20.85;10.45;;;;;;;;;;4951425;28;20486;-79
2022/01/27 05:27:07;;;;;;;23.13;11.65;;;;;;;;;;4950661;28;20047;-80
2022/01/27 05:29:33;;;;;;;20.15;10.63;;;;;;;;;;4965962;28;20503;-80
2022/01/27 05:31:59;;;;;;;27.70;11.35;;;;;;;;;;4952728;28;20042;-80
2022/01/27 05:34:25;;;;;;;26.13;10.65;;;;;;;;;;4970379;28;20070;-81
2022/01/27 05:36:51;;;;;;;28.65;12.25;;;;;;;;;;4971566;28;20129;-80
2022/01/27 05:39:17;;;;;;;26.20;11.93;;;;;;;;;;4968711;28;20050;-80
2022/01/27 05:41:43;;;;;;;24.95;11.68;;;;;;;;;;4946136;28;20450;-80
2022/01/27 05:44:09;;;;;;;25.63;11.90;;;;;;;;;;4947433;28;20495;-81
2022/01/27 05:46:35;;;;;;;23.25;11.23;;;;;;;;;;4953310;28;20069;-80
2022/01/27 05:49:01;;;;;;;23.98;10.75;;;;;;;;;;4964777;28;20100;-80
2022/01/27 05:51:27;;;;;;;22.83;11.07;;;;;;;;;;4954812;28;20050;-80
2022/01/27 05:53:53;;;;;;;26.63;11.27;;;;;;;;;;4953158;28;20467;-81
2022/01/27 05:56:19;;;;;;;20.40;10.30;;;;;;;;;;4951644;28;20503;-79
2022/01/27 05:58:46;;;;;;;22.50;11.55;;;;;;;;;;4950305;28;20078;-78
2022/01/27 06:01:12;;;;;;;23.70;11.75;;;;;;;;;;4968663;28;20121;-80
2022/01/27 06:03:38;;;;;;;20.08;10.07;;;;;;;;;;4953052;28;20054;-80
2022/01/27 06:06:04;;;;;;;22.80;11.25;;;;;;;;;;4952713;28;20047;-79
2022/01/27 06:08:30;;;;;;;23.25;11.15;;;;;;;;;;4970367;28;20356;-80
2022/01/27 06:10:57;;;;;;;24.08;11.63;;;;;;;;;;4969089;28;20053;-80
2022/01/27 06:13:26;;;;;;;24.10;10.88;;;;;;;;;;4966179;28;20059;-79
2022/01/27 06:15:52;;;;;;;21.45;10.05;;;;;;;;;;4949369;28;20507;-79
2022/01/27 06:18:18;;;;;;;19.75;9.98;;;;;;;;;;4952245;28;20502;-79
2022/01/27 06:20:45;;;;;;;25.67;10.88;;;;;;;;;;4966585;28;20499;-80
2022/01/27 06:23:12;;;;;;;24.83;10.18;;;;;;;;;;4948280;28;20181;-78
2022/01/27 06:25:38;;;;;;;24.52;10.57;;;;;;;;;;4947981;28;20437;-78
2022/01/27 06:28:04;;;;;;;22.55;10.02;;;;;;;;;;4951277;28;20435;-79
2022/01/27 06:30:34;;;;;;;22.60;10.38;;;;;;;;;;4968734;28;20054;-78
2022/01/27 06:33:01;;;;;;;27.80;11.27;;;;;;;;;;4954763;28;20170;-79
2022/01/27 06:35:27;;;;;;;24.05;9.77;;;;;;;;;;4967272;28;20047;-80
2022/01/27 06:37:53;;;;;;;22.38;10.38;;;;;;;;;;4967569;28;20050;-80
2022/01/27 06:40:19;;;;;;;24.48;10.07;;;;;;;;;;4965952;28;20046;-79
2022/01/27 06:42:45;;;;;;;23.85;10.40;;;;;;;;;;4947719;28;20047;-80
2022/01/27 06:45:11;;;;;;;21.50;9.55;;;;;;;;;;4945255;28;20491;-79
2022/01/27 06:47:38;;;;;;;22.35;9.00;;;;;;;;;;4953325;28;20058;-79
2022/01/27 06:50:05;;;;;;;21.48;8.95;;;;;;;;;;4971010;28;20178;-78
2022/01/27 06:52:31;;;;;;;25.60;8.73;;;;;;;;;;4974823;28;20487;-79
2022/01/27 06:54:57;;;;;;;17.67;8.57;;;;;;;;;;4953847;28;20490;-81
2022/01/27 06:57:24;;;;;;;16.85;7.78;;;;;;;;;;4956883;28;20340;-80
2022/01/27 06:59:50;;;;;;;20.98;8.45;;;;;;;;;;4957983;28;20368;-80
2022/01/27 07:02:16;;;;;;;22.08;8.48;;;;;;;;;;4955201;28;20046;-80
2022/01/27 07:04:42;;;;;;;18.55;8.10;;;;;;;;;;4958176;28;20049;-79
2022/01/27 07:07:08;;;;;;;15.95;7.47;;;;;;;;;;4957420;28;20125;-79
2022/01/27 07:09:34;;;;;;;18.60;8.98;;;;;;;;;;4957070;28;20174;-80
2022/01/27 07:12:00;;;;;;;19.42;7.30;;;;;;;;;;4955680;28;20042;-79
2022/01/27 07:14:26;;;;;;;21.77;7.60;;;;;;;;;;4957129;28;20391;-79
2022/01/27 07:16:53;;;;;;;18.63;8.13;;;;;;;;;;4956019;28;20372;-80
2022/01/27 07:19:19;;;;;;;18.90;7.70;;;;;;;;;;4957925;28;20145;-79
2022/01/27 07:21:45;;;;;;;16.75;7.50;;;;;;;;;;4957258;28;20465;-80
2022/01/27 07:24:11;;;;;;;17.60;6.65;;;;;;;;;;4956397;28;20475;-80
2022/01/27 07:26:37;;;;;;;18.75;7.40;;;;;;;;;;4957910;28;20054;-79
2022/01/27 07:29:03;;;;;;;17.45;7.45;;;;;;;;;;4956916;28;20082;-78
2022/01/27 07:31:29;;;;;;;20.48;7.15;;;;;;;;;;4952871;28;20056;-80
2022/01/27 07:33:55;;;;;;;18.40;7.15;;;;;;;;;;4953033;29;20492;-80
2022/01/27 07:36:21;;;;;;;26.80;7.65;;;;;;;;;;4951320;28;20566;-80
2022/01/27 07:38:48;;;;;;;16.50;7.03;;;;;;;;;;4973272;28;20430;-80
2022/01/27 07:41:14;;;;;;;18.05;6.50;;;;;;;;;;4957298;28;20043;-80
2022/01/27 07:43:43;;;;;;;19.70;7.32;;;;;;;;;;4956319;28;20547;-80
2022/01/27 07:46:13;;;;;;;18.35;7.40;;;;;;;;;;4956302;28;20046;-79
2022/01/27 07:48:40;;;;;;;12.20;6.15;;;;;;;;;;4957117;28;20053;-80
2022/01/27 07:51:07;;;;;;;17.30;6.72;;;;;;;;;;4967180;28;20047;-79
2022/01/27 07:53:33;;;;;;;17.50;6.93;;;;;;;;;;4954112;28;20078;-79
2022/01/27 07:56:02;;;;;;;17.23;6.65;;;;;;;;;;4973154;28;20051;-79
2022/01/27 07:58:27;;;;;;;18.67;6.30;;;;;;;;;;4955894;28;20050;-79
2022/01/27 08:00:53;;;;;;;21.30;6.22;;;;;;;;;;4956006;28;20046;-80
2022/01/27 08:03:19;;;;;;;20.63;7.00;;;;;;;;;;4956771;28;20074;-81
2022/01/27 08:05:45;;;;;;;18.48;6.82;;;;;;;;;;4955181;28;20050;-80
2022/01/27 08:08:11;;;;;;;19.83;6.88;;;;;;;;;;4955877;28;20050;-80
2022/01/27 08:10:38;;;;;;;19.42;6.65;;;;;;;;;;4955971;28;20541;-81
2022/01/27 08:13:05;;;;;;;22.10;6.78;;;;;;;;;;4956151;28;20071;-79
2022/01/27 08:15:37;;;;;;;16.05;6.15;;;;;;;;;;4956522;28;20096;-80
2022/01/27 08:18:07;;;;;;;18.02;5.95;;;;;;;;;;4954794;28;20047;-80
2022/01/27 08:20:33;;;;;;;18.55;6.43;;;;;;;;;;4958237;28;20058;-80
2022/01/27 08:22:59;;;;;;;22.55;6.38;;;;;;;;;;4955945;28;20047;-80
2022/01/27 08:25:25;;;;;;;17.92;5.72;;;;;;;;;;4956129;28;20043;-80
2022/01/27 08:27:55;;;;;;;19.33;6.57;;;;;;;;;;4973035;28;20055;-79
2022/01/27 08:30:25;;;;;;;16.95;6.05;;;;;;;;;;4956725;28;20205;-80
2022/01/27 08:33:05;;;;;;;15.80;6.40;;;;;;;;;;4955525;28;20034;-80
2022/01/27 08:35:31;;;;;;;16.90;5.65;;;;;;;;;;4972999;28;20050;-80
2022/01/27 08:37:58;;;;;;;14.70;5.72;;;;;;;;;;4973401;28;20134;-79
2022/01/27 08:40:25;;;;;;;19.58;5.90;;;;;;;;;;4954979;28;20129;-80
2022/01/27 08:42:51;;;;;;;18.60;6.05;;;;;;;;;;4952508;29;20047;-80
2022/01/27 08:45:19;;;;;;;18.05;5.95;;;;;;;;;;4973609;28;20163;-80
2022/01/27 08:47:46;;;;;;;20.02;6.15;;;;;;;;;;4970309;28;20050;-80
2022/01/27 08:50:13;;;;;;;18.05;6.13;;;;;;;;;;4956730;28;20483;-79
2022/01/27 08:52:39;;;;;;;20.17;6.72;;;;;;;;;;4956379;28;20076;-81
2022/01/27 08:55:06;;;;;;;22.67;5.97;;;;;;;;;;4955117;28;20046;-80
2022/01/27 08:57:33;;;;;;;18.15;5.55;;;;;;;;;;4973112;28;20043;-80
2022/01/27 09:00:02;;;;;;;22.80;6.15;;;;;;;;;;4973143;28;20042;-80
2022/01/27 09:02:28;;;;;;;17.63;6.70;;;;;;;;;;4953138;28;20614;-80
2022/01/27 09:04:55;;;;;;;17.98;6.18;;;;;;;;;;4955629;28;20401;-79
2022/01/27 09:07:21;;;;;;;17.65;5.63;;;;;;;;;;4972458;28;20052;-80
2022/01/27 09:09:47;;;;;;;18.80;5.30;;;;;;;;;;4954928;28;20054;-80
2022/01/27 09:12:14;;;;;;;18.42;5.30;;;;;;;;;;4972894;28;20046;-80
2022/01/27 09:14:42;;;;;;;15.23;4.85;;;;;;;;;;4972146;28;20379;-80
2022/01/27 09:17:09;;;;;;;14.00;5.10;;;;;;;;;;4953874;28;20098;-80
2022/01/27 09:19:39;;;;;;;16.42;5.38;;;;;;;;;;4955549;28;20050;-80
2022/01/27 09:22:08;;;;;;;11.38;4.53;;;;;;;;;;4972891;28;20058;-80
2022/01/27 09:24:40;;;;;;;16.02;4.95;;;;;;;;;;4952800;28;20057;-79
2022/01/27 09:27:07;;;;;;;17.75;5.63;;;;;;;;;;4952801;28;20120;-78
2022/01/27 09:29:33;;;;;;;15.00;5.20;;;;;;;;;;4954261;28;20157;-80
2022/01/27 09:32:02;;;;;;;17.83;5.85;;;;;;;;;;4954501;28;20047;-79
2022/01/27 09:34:29;;;;;;;15.00;5.30;;;;;;;;;;4973309;28;20190;-81
2022/01/27 09:36:55;;;;;;;17.77;4.80;;;;;;;;;;4954917;28;20105;-81
2022/01/27 09:39:23;;;;;;;14.60;5.32;;;;;;;;;;4971754;28;20051;-80
2022/01/27 09:41:50;;;;;;;15.75;5.32;;;;;;;;;;4952987;29;20488;-79
2022/01/27 09:44:19;;;;;;;14.77;5.05;;;;;;;;;;4940884;28;20054;-80
2022/01/27 09:46:46;;;;;;;14.15;5.28;;;;;;;;;;4970459;28;20047;-81
2022/01/27 09:49:16;;;;;;;13.45;5.32;;;;;;;;;;4954845;28;20055;-81
2022/01/27 09:51:45;;;;;;;13.55;4.85;;;;;;;;;;4971438;28;20092;-81
2022/01/27 09:54:11;;;;;;;14.63;4.88;;;;;;;;;;4955280;28;20105;-81
2022/01/27 09:56:40;;;;;;;19.80;4.97;;;;;;;;;;4971501;28;20522;-80
2022/01/27 09:59:09;;;;;;;17.65;5.65;;;;;;;;;;4953936;28;20510;-81
2022/01/27 10:01:36;;;;;;;14.55;5.65;;;;;;;;;;4953941;28;20050;-81
2022/01/27 10:04:04;;;;;;;14.77;5.45;;;;;;;;;;4954964;28;20051;-80
2022/01/27 10:06:32;;;;;;;17.75;5.28;;;;;;;;;;4954049;28;20138;-80
2022/01/27 10:09:11;;;;;;;14.23;5.13;;;;;;;;;;4955219;28;20058;-80
2022/01/27 10:11:37;;;;;;;18.60;5.20;;;;;;;;;;4954376;28;20098;-80
2022/01/27 10:14:22;;;;;;;16.50;5.30;;;;;;;;;;4969171;28;20163;-80
2022/01/27 10:16:50;;;;;;;17.30;5.53;;;;;;;;;;4950165;28;20113;-82
2022/01/27 10:19:16;;;;;;;19.30;5.28;;;;;;;;;;4970269;28;20043;-81
2022/01/27 10:21:42;;;;;;;17.50;5.07;;;;;;;;;;4971749;28;20054;-81
2022/01/27 10:24:14;;;;;;;13.38;5.13;;;;;;;;;;4954442;28;20039;-80
2022/01/27 10:26:47;;;;;;;16.75;4.72;;;;;;;;;;4954134;28;20460;-81
2022/01/27 10:29:17;;;;;;;18.37;4.83;;;;;;;;;;4950001;28;20095;-81
2022/01/27 10:31:44;;;;;;;17.13;4.78;;;;;;;;;;4953442;28;20451;-80
2022/01/27 10:34:11;;;;;;;20.30;6.25;;;;;;;;;;4955871;28;20094;-80
2022/01/27 10:36:44;;;;;;;16.95;4.85;;;;;;;;;;4956413;28;20137;-81
2022/01/27 10:39:20;;;;;;;18.05;5.65;;;;;;;;;;4958567;28;20042;-80
2022/01/27 10:41:57;;;;;;;16.40;5.55;;;;;;;;;;4956018;28;20129;-80
2022/01/27 10:44:23;;;;;;;18.13;4.95;;;;;;;;;;4957980;28;20058;-80
2022/01/27 10:47:01;;;;;;;19.15;5.50;;;;;;;;;;4957106;28;20125;-80
2022/01/27 10:49:32;;;;;;;18.42;5.40;;;;;;;;;;4957929;28;20434;-80
2022/01/27 10:51:59;;;;;;;17.98;5.72;;;;;;;;;;4958312;28;20050;-80
2022/01/27 10:54:36;;;;;;;17.73;4.95;;;;;;;;;;4941457;28;20077;-80
2022/01/27 10:57:04;;;;;;;17.48;5.05;;;;;;;;;;4956356;28;20125;-80
2022/01/27 10:59:32;;;;;;;14.50;5.20;;;;;;;;;;4975200;28;20446;-80
2022/01/27 11:01:59;;;;;;;17.08;5.03;;;;;;;;;;4958600;28;20113;-80
2022/01/27 11:04:32;;;;;;;20.80;5.55;;;;;;;;;;4974850;28;20140;-80
2022/01/27 11:06:59;;;;;;;;;;;;;;;;;;4959225;28;20406;-80
2022/01/27 11:09:26;;;;;;;21.52;5.75;;;;;;;;;;4974205;28;19940;-81
2022/01/27 11:11:54;;;;;;;22.48;5.25;;;;;;;;;;4955236;28;20126;-80
2022/01/27 11:14:20;;;;;;;18.63;4.70;;;;;;;;;;4975011;28;20058;-80
2022/01/27 11:16:50;;;;;;;18.45;5.97;;;;;;;;;;4956755;28;20057;-80
2022/01/27 11:19:33;;;;;;;17.58;5.47;;;;;;;;;;4957101;28;20050;-80
2022/01/27 11:24:36;;;;;;;18.75;5.13;;;;;;;;;;4973142;28;20066;-79
2022/01/27 11:27:05;;;;;;;17.77;5.57;;;;;;;;;;4975644;28;20070;-80
2022/01/27 11:29:31;;;;;;;16.17;4.85;;;;;;;;;;4974453;28;20137;-78
2022/01/27 11:32:00;;;;;;;18.13;5.40;;;;;;;;;;4956861;28;20039;-80
2022/01/27 11:34:45;;;;;;;15.52;5.00;;;;;;;;;;4938918;29;20051;-80
2022/01/27 11:37:13;;;;;;;16.27;4.63;;;;;;;;;;4972567;28;20078;-80
2022/01/27 11:39:51;;;;;;;19.67;5.10;;;;;;;;;;4971248;28;20043;-79
2022/01/27 11:42:42;;;;;;;13.85;4.82;;;;;;;;;;4956620;28;20042;-80
2022/01/27 11:45:25;;;;;;;15.73;4.90;;;;;;;;;;4913962;28;20064;-79
2022/01/27 11:47:54;;;;;;;16.13;5.05;;;;;;;;;;4957600;28;20077;-80
2022/01/27 11:50:33;;;;;;;18.35;4.95;;;;;;;;;;4953506;28;20368;-80
2022/01/27 11:53:00;;;;;;;16.27;5.57;;;;;;;;;;4952107;28;20129;-80
2022/01/27 11:55:26;;;;;;;18.30;5.15;;;;;;;;;;4977368;28;20066;-79
2022/01/27 11:57:56;;;;;;;17.90;4.65;;;;;;;;;;4956402;28;20043;-80
2022/01/27 12:00:26;;;;;;;16.48;4.85;;;;;;;;;;4973218;28;20381;-79
2022/01/27 12:03:01;;;;;;;17.15;5.15;;;;;;;;;;4953017;28;20138;-80
2022/01/27 12:05:28;;;;;;;17.50;4.60;;;;;;;;;;4955785;28;20049;-79
2022/01/27 12:08:20;;;;;;;15.50;5.10;;;;;;;;;;4973278;28;20092;-80
2022/01/27 12:10:54;;;;;;;14.73;5.03;;;;;;;;;;4956841;28;20059;-80
2022/01/27 12:13:27;;;;;;;14.32;4.07;;;;;;;;;;4954707;29;20491;-79
2022/01/27 12:19:00;;;;;;;14.40;4.22;;;;;;;;;;4974551;28;20117;-80
2022/01/27 12:21:32;;;;;;;19.33;4.72;;;;;;;;;;4956361;28;20051;-80
2022/01/27 12:24:14;;;;;;;14.60;4.47;;;;;;;;;;4954601;28;20079;-79
2022/01/27 12:26:47;;;;;;;17.75;4.25;;;;;;;;;;4953621;28;20402;-79
2022/01/27 12:29:26;;;;;;;15.18;5.70;;;;;;;;;;4973317;28;20062;-79
2022/01/27 12:31:52;;;;;;;16.65;4.18;;;;;;;;;;4965154;28;20047;-79
2022/01/27 12:34:18;;;;;;;12.07;4.35;;;;;;;;;;4948340;28;20078;-79
2022/01/27 12:36:58;;;;;;;13.73;3.90;;;;;;;;;;4968631;28;20167;-80
2022/01/27 12:39:26;;;;;;;14.98;4.68;;;;;;;;;;4953008;28;20042;-79
2022/01/27 12:41:55;;;;;;;15.05;4.78;;;;;;;;;;4967978;28;20042;-78
2022/01/27 12:44:26;;;;;;;16.70;4.57;;;;;;;;;;4952413;28;20056;-78
2022/01/27 12:47:01;;;;;;;17.85;4.22;;;;;;;;;;4968003;28;20069;-78
2022/01/27 12:49:36;;;;;;;20.88;4.93;;;;;;;;;;4964761;28;20050;-78
2022/01/27 12:52:05;;;;;;;18.77;4.60;;;;;;;;;;4954935;28;20125;-77
2022/01/27 12:54:31;;;;;;;14.27;3.80;;;;;;;;;;4943813;28;20134;-78
2022/01/27 12:56:57;;;;;;;15.98;4.40;;;;;;;;;;4954840;28;20153;-78
2022/01/27 12:59:23;;;;;;;15.68;4.30;;;;;;;;;;4972189;28;20047;-78
2022/01/27 13:01:57;;;;;;;14.05;4.75;;;;;;;;;;4968486;28;20055;-78
2022/01/27 13:04:24;;;;;;;14.50;4.75;;;;;;;;;;4971090;28;20447;-79
2022/01/27 13:06:54;;;;;;;14.52;4.20;;;;;;;;;;4971866;28;20471;-79
2022/01/27 13:09:21;;;;;;;15.50;4.20;;;;;;;;;;4968741;28;20051;-79
2022/01/27 13:11:49;;;;;;;8.57;3.55;;;;;;;;;;4965956;28;20050;-79
2022/01/27 13:14:15;;;;;;;14.85;4.53;;;;;;;;;;4972072;28;20046;-79
2022/01/27 13:16:43;;;;;;;15.98;4.53;;;;;;;;;;4968220;28;20053;-79
2022/01/27 13:19:21;;;;;;;14.20;3.63;;;;;;;;;;4971825;28;20058;-78
2022/01/27 13:21:53;;;;;;;12.30;4.18;;;;;;;;;;4970247;28;20047;-81
2022/01/27 13:24:19;;;;;;;15.40;3.78;;;;;;;;;;4955286;28;20119;-79
2022/01/27 13:26:46;;;;;;;12.32;3.85;;;;;;;;;;4972075;28;20047;-79
2022/01/27 13:29:17;;;;;;;17.25;4.45;;;;;;;;;;4961223;28;20077;-78
2022/01/27 13:31:43;;;;;;;13.18;4.15;;;;;;;;;;4969719;28;20050;-79
2022/01/27 13:34:09;;;;;;;11.25;4.03;;;;;;;;;;4965873;28;20039;-78
2022/01/27 13:36:36;;;;;;;14.23;4.25;;;;;;;;;;4964601;28;20133;-78
2022/01/27 13:41:33;;;;;;;13.75;3.97;;;;;;;;;;4971621;28;20053;-79
2022/01/27 13:44:05;;;;;;;15.52;4.25;;;;;;;;;;4969270;28;20043;-79
2022/01/27 13:46:34;;;;;;;17.13;4.20;;;;;;;;;;4963624;28;20123;-79
2022/01/27 13:49:12;;;;;;;13.95;3.97;;;;;;;;;;4969286;28;20038;-78
2022/01/27 13:51:46;;;;;;;12.63;4.13;;;;;;;;;;4966144;28;20049;-78
2022/01/27 13:54:12;;;;;;;14.98;3.70;;;;;;;;;;4970708;28;20470;-78
2022/01/27 13:56:42;;;;;;;14.80;3.63;;;;;;;;;;4954129;28;20502;-79
2022/01/27 13:59:14;;;;;;;15.65;4.03;;;;;;;;;;4969664;28;20135;-79
2022/01/27 14:01:41;;;;;;;12.10;3.83;;;;;;;;;;4951271;28;20035;-79
2022/01/27 14:04:07;;;;;;;12.10;3.83;;;;;;;;;;4950757;28;20054;-77
2022/01/27 14:06:46;;;;;;;10.45;3.67;;;;;;;;;;4967266;28;20039;-78
2022/01/27 14:09:16;;;;;;;13.70;4.07;;;;;;;;;;4949078;28;20031;-79
2022/01/27 14:11:42;;;;;;;12.10;3.92;;;;;;;;;;4951066;28;20440;-80
2022/01/27 14:14:11;;;;;;;10.40;3.42;;;;;;;;;;4971943;28;20046;-79
2022/01/27 14:16:38;;;;;;;13.68;4.55;;;;;;;;;;4969079;28;20426;-79
2022/01/27 14:19:10;;;;;;;14.50;4.38;;;;;;;;;;4968700;28;20550;-80
2022/01/27 14:21:41;;;;;;;16.73;4.13;;;;;;;;;;4950588;28;20055;-80
2022/01/27 14:24:11;;;;;;;14.32;4.13;;;;;;;;;;4965362;28;20050;-80
2022/01/27 14:26:44;;;;;;;11.65;3.70;;;;;;;;;;4967514;28;20542;-79
2022/01/27 14:29:16;;;;;;;12.35;4.10;;;;;;;;;;4951066;28;20122;-78
2022/01/27 14:31:47;;;;;;;12.52;4.32;;;;;;;;;;4959905;28;20067;-79
2022/01/27 14:34:33;;;;;;;13.00;4.22;;;;;;;;;;4949470;28;20141;-77
2022/01/27 14:36:59;;;;;;;15.25;4.38;;;;;;;;;;4971372;28;20051;-79
2022/01/27 14:39:26;;;;;;;8.30;3.78;;;;;;;;;;4970371;28;20487;-78
2022/01/27 14:41:52;;;;;;;12.88;4.05;;;;;;;;;;4971638;28;20529;-79
2022/01/27 14:44:19;;;;;;;15.88;4.25;;;;;;;;;;4969006;28;20039;-79
2022/01/27 14:46:48;;;;;;;12.55;3.92;;;;;;;;;;4966203;28;20039;-79
2022/01/27 14:49:14;;;;;;;12.70;3.53;;;;;;;;;;4967859;28;20379;-79
2022/01/27 14:51:43;;;;;;;13.15;3.80;;;;;;;;;;4966955;28;20159;-80
2022/01/27 14:54:09;;;;;;;13.88;4.30;;;;;;;;;;4963483;28;20447;-80
2022/01/27 14:56:35;;;;;;;12.88;3.65;;;;;;;;;;4971493;28;20133;-80
2022/01/27 14:59:03;;;;;;;9.77;3.63;;;;;;;;;;4951045;28;20038;-80
2022/01/27 15:01:29;;;;;;;15.23;4.38;;;;;;;;;;4946106;28;20063;-80
2022/01/27 15:03:55;;;;;;;15.75;3.40;;;;;;;;;;4962906;28;20074;-80
2022/01/27 15:06:25;;;;;;;10.15;3.65;;;;;;;;;;4968895;28;20344;-80
2022/01/27 15:08:54;;;;;;;11.75;4.25;;;;;;;;;;4952619;28;20051;-80
2022/01/27 15:11:20;;;;;;;13.18;4.18;;;;;;;;;;4964132;28;20050;-80
2022/01/27 15:13:48;;;;;;;16.38;4.38;;;;;;;;;;4950799;28;20059;-80
2022/01/27 15:21:52;;;;;;;12.57;3.78;;;;;;;;;;4934031;28;20395;-80
2022/01/27 15:24:18;;;;;;;13.43;4.15;;;;;;;;;;4969278;28;20074;-78
2022/01/27 15:26:44;;;;;;;16.52;4.18;;;;;;;;;;4953424;28;20117;-79